Time;durP1;ratioP1;P1;durP2;ratioP2;P2;SDS_P1;SDS_P2;PMS_P1;PMS_P2;Temp;Humidity;BMP_temperature;BMP_pressure;BME280_temperature;BME280_humidity;BME280_pressure;Samples;Min_cycle;Max_cycle;Signal;HPM_P1;HPM_P2
2024/01/05 00:01:03;;;;;;;11.40;2.90;;;;;;;6.40;100.00;99707.19;5026140;28;20033;-64
2024/01/05 00:03:29;;;;;;;12.77;3.13;;;;;;;6.40;100.00;99694.34;5026944;28;20580;-65
2024/01/05 00:05:54;;;;;;;13.70;3.30;;;;;;;6.39;100.00;99695.13;5029116;28;20034;-64
2024/01/05 00:08:20;;;;;;;15.68;3.60;;;;;;;6.40;100.00;99691.75;5029703;28;20025;-64
2024/01/05 00:10:45;;;;;;;11.05;2.83;;;;;;;6.40;100.00;99689.19;5029046;28;20025;-65
2024/01/05 00:13:10;;;;;;;13.80;3.67;;;;;;;6.49;100.00;99691.16;5029240;28;20026;-65
2024/01/05 00:15:36;;;;;;;12.00;3.45;;;;;;;6.49;100.00;99689.44;5028534;28;20041;-64
2024/01/05 00:18:01;;;;;;;11.93;3.10;;;;;;;6.52;100.00;99688.66;5027098;28;20069;-64
2024/01/05 00:20:26;;;;;;;18.23;4.25;;;;;;;6.49;100.00;99684.28;5028805;28;20033;-64
2024/01/05 00:22:52;;;;;;;11.85;3.55;;;;;;;6.49;100.00;99688.59;5028798;28;20032;-64
2024/01/05 00:25:21;;;;;;;10.85;3.47;;;;;;;6.50;100.00;99687.75;5028486;28;20025;-64
2024/01/05 00:27:47;;;;;;;16.35;3.60;;;;;;;6.55;100.00;99686.19;5028208;28;20124;-64
2024/01/05 00:30:13;;;;;;;13.27;3.47;;;;;;;6.51;100.00;99676.63;5028722;28;20037;-64
2024/01/05 00:32:38;;;;;;;11.27;2.92;;;;;;;6.53;100.00;99680.09;5027997;28;20482;-64
2024/01/05 00:35:03;;;;;;;18.20;3.75;;;;;;;6.54;100.00;99674.16;5038088;28;20056;-64
2024/01/05 00:37:29;;;;;;;15.65;3.67;;;;;;;6.58;100.00;99673.38;5028589;28;20080;-64
2024/01/05 00:39:54;;;;;;;23.30;4.57;;;;;;;6.60;100.00;99664.00;5028666;28;20029;-64
2024/01/05 00:42:19;;;;;;;13.07;2.97;;;;;;;6.60;100.00;99655.44;5031588;28;20566;-65
2024/01/05 00:44:44;;;;;;;16.70;3.17;;;;;;;6.66;100.00;99655.59;5029965;28;20040;-65
2024/01/05 00:47:10;;;;;;;13.38;3.30;;;;;;;6.67;100.00;99652.22;5028142;28;20069;-64
2024/01/05 00:49:35;;;;;;;16.83;3.33;;;;;;;6.65;100.00;99648.72;5028367;28;20549;-64
2024/01/05 00:52:01;;;;;;;12.93;3.72;;;;;;;6.66;100.00;99650.47;5029259;28;20049;-64
2024/01/05 00:54:26;;;;;;;8.40;2.50;;;;;;;6.67;100.00;99652.22;5027620;28;20487;-64
2024/01/05 00:56:52;;;;;;;15.88;4.40;;;;;;;6.66;100.00;99639.28;5034711;28;20082;-64
2024/01/05 00:59:20;;;;;;;11.25;2.65;;;;;;;6.66;100.00;99640.16;5028136;28;20428;-64
2024/01/05 01:01:46;;;;;;;12.18;3.63;;;;;;;6.66;100.00;99641.84;5028339;28;20385;-64
2024/01/05 01:04:11;;;;;;;21.27;4.32;;;;;;;6.66;100.00;99640.16;5028655;28;20116;-64
2024/01/05 01:06:36;;;;;;;11.70;2.70;;;;;;;6.68;100.00;99633.34;5028020;28;20382;-64
2024/01/05 01:09:02;;;;;;;15.90;2.95;;;;;;;6.69;100.00;99636.81;5027845;28;20087;-64
2024/01/05 01:11:27;;;;;;;15.80;3.70;;;;;;;6.68;100.00;99628.22;5027753;28;20796;-64
2024/01/05 01:13:53;;;;;;;10.25;2.80;;;;;;;6.73;100.00;99629.22;5028305;28;20410;-64
2024/01/05 01:16:18;;;;;;;12.90;2.88;;;;;;;6.77;100.00;99626.72;5043307;28;20033;-65
2024/01/05 01:18:43;;;;;;;16.50;3.20;;;;;;;6.74;100.00;99627.50;5034901;28;20064;-64
2024/01/05 01:21:09;;;;;;;14.77;3.35;;;;;;;6.75;100.00;99618.94;5027437;28;20029;-64
2024/01/05 01:23:34;;;;;;;13.82;2.72;;;;;;;6.75;100.00;99615.50;5038769;28;20421;-64
2024/01/05 01:25:59;;;;;;;13.27;2.70;;;;;;;6.73;100.00;99620.59;5028430;28;20029;-63
2024/01/05 01:28:24;;;;;;;16.30;3.08;;;;;;;6.75;100.00;99610.34;5026175;28;20180;-65
2024/01/05 01:30:50;;;;;;;11.60;2.90;;;;;;;6.73;100.00;99616.34;5029468;28;20025;-64
2024/01/05 01:33:15;;;;;;;13.23;4.07;;;;;;;6.77;100.00;99606.13;5039082;28;20039;-64
2024/01/05 01:35:40;;;;;;;10.40;2.30;;;;;;;6.73;100.00;99611.19;5027673;28;20496;-64
2024/01/05 01:38:06;;;;;;;14.52;3.03;;;;;;;6.72;100.00;99604.31;5038666;28;20033;-64
2024/01/05 01:40:31;;;;;;;9.02;2.92;;;;;;;6.71;100.00;99596.53;5039597;28;20021;-64
2024/01/05 01:42:56;;;;;;;10.73;2.72;;;;;;;6.70;100.00;99600.81;5027282;28;20060;-64
2024/01/05 01:45:21;;;;;;;12.30;2.63;;;;;;;6.68;100.00;99599.00;5027232;28;20029;-64
2024/01/05 01:47:47;;;;;;;10.18;2.70;;;;;;;6.68;100.00;99591.28;5027147;28;20111;-64
2024/01/05 01:50:13;;;;;;;14.50;2.88;;;;;;;6.67;100.00;99585.28;5026698;28;20044;-64
2024/01/05 01:52:42;;;;;;;14.18;2.83;;;;;;;6.69;100.00;99582.75;5027469;28;20025;-64
2024/01/05 01:55:08;;;;;;;9.90;3.03;;;;;;;6.68;100.00;99581.88;5027104;28;20104;-64
2024/01/05 01:57:34;;;;;;;11.50;2.55;;;;;;;6.67;100.00;99574.97;5027060;28;20026;-64
2024/01/05 02:00:00;;;;;;;14.25;2.80;;;;;;;6.68;100.00;99575.84;5027068;28;20056;-64
2024/01/05 02:02:26;;;;;;;15.98;3.78;;;;;;;6.67;100.00;99579.25;5027809;28;20107;-64
2024/01/05 02:04:52;;;;;;;8.98;2.20;;;;;;;6.69;100.00;99567.31;5026061;28;20025;-64
2024/01/05 02:07:17;;;;;;;9.70;2.55;;;;;;;6.73;100.00;99563.97;5027066;28;20029;-64
2024/01/05 02:09:42;;;;;;;12.93;2.70;;;;;;;6.75;100.00;99556.28;5025769;28;20104;-64
2024/01/05 02:12:08;;;;;;;11.02;2.42;;;;;;;6.71;100.00;99552.78;5026846;28;20371;-63
2024/01/05 02:14:33;;;;;;;11.82;2.78;;;;;;;6.65;100.00;99542.28;5026554;28;20028;-64
2024/01/05 02:16:59;;;;;;;13.68;2.35;;;;;;;6.61;100.00;99538.75;5037872;28;20729;-64
2024/01/05 02:19:25;;;;;;;10.73;2.40;;;;;;;6.68;100.00;99539.78;5028846;28;20017;-63
2024/01/05 02:21:54;;;;;;;17.55;2.67;;;;;;;6.62;100.00;99527.63;5037291;28;20131;-64
2024/01/05 02:24:20;;;;;;;7.93;2.13;;;;;;;6.55;100.00;99520.59;5027436;28;20100;-64
2024/01/05 02:26:45;;;;;;;14.23;2.38;;;;;;;6.52;100.00;99523.06;5026834;28;20108;-64
2024/01/05 02:29:10;;;;;;;9.27;2.20;;;;;;;6.51;100.00;99523.91;5031027;28;20454;-64
2024/01/05 02:31:36;;;;;;;9.98;1.80;;;;;;;6.53;100.00;99519.66;5046773;28;20032;-64
2024/01/05 02:34:01;;;;;;;8.75;2.40;;;;;;;6.51;100.00;99516.19;5032693;28;20128;-64
2024/01/05 02:36:26;;;;;;;8.40;1.92;;;;;;;6.45;100.00;99509.16;5034193;28;20030;-64
2024/01/05 02:38:51;;;;;;;7.32;2.35;;;;;;;6.40;100.00;99509.03;5025939;28;20512;-64
2024/01/05 02:41:17;;;;;;;7.30;2.33;;;;;;;6.38;100.00;99510.69;5026180;28;20150;-64
2024/01/05 02:43:42;;;;;;;7.63;2.10;;;;;;;6.38;100.00;99500.41;5025443;28;20029;-64
2024/01/05 02:46:09;;;;;;;8.80;1.77;;;;;;;6.35;100.00;99503.75;5026721;28;20047;-64
2024/01/05 02:48:34;;;;;;;11.20;2.42;;;;;;;6.38;100.00;99504.66;5040214;28;20052;-64
2024/01/05 02:50:59;;;;;;;11.55;2.10;;;;;;;6.33;100.00;99492.53;5023840;28;20030;-64
2024/01/05 02:53:25;;;;;;;9.70;2.85;;;;;;;6.31;100.00;99490.75;5025973;28;20466;-64
2024/01/05 02:55:50;;;;;;;12.55;2.47;;;;;;;6.31;100.00;99485.63;5025972;28;20439;-64
2024/01/05 02:58:15;;;;;;;7.90;2.00;;;;;;;6.30;100.00;99487.31;5024622;28;20049;-64
2024/01/05 03:00:40;;;;;;;6.78;1.65;;;;;;;6.33;100.00;99481.38;5020054;28;20026;-64
2024/01/05 03:03:06;;;;;;;8.82;2.22;;;;;;;6.31;100.00;99476.22;5024019;28;20429;-64
2024/01/05 03:05:31;;;;;;;11.20;2.53;;;;;;;6.32;100.00;99479.63;5025637;28;20044;-64
2024/01/05 03:07:57;;;;;;;9.48;2.30;;;;;;;6.35;100.00;99474.59;5017242;28;20029;-64
2024/01/05 03:10:23;;;;;;;10.65;1.80;;;;;;;6.34;100.00;99477.97;5025949;28;20021;-64
2024/01/05 03:12:51;;;;;;;8.80;2.13;;;;;;;6.36;100.00;99471.19;5030900;28;20428;-63
2024/01/05 03:15:16;;;;;;;6.97;1.70;;;;;;;6.37;100.00;99465.19;5033584;28;20095;-64
2024/01/05 03:17:42;;;;;;;10.10;2.25;;;;;;;6.34;100.00;99466.00;5022255;28;20021;-64
2024/01/05 03:20:09;;;;;;;10.52;2.35;;;;;;;6.36;100.00;99459.19;5027831;28;20060;-63
2024/01/05 03:22:34;;;;;;;5.78;1.80;;;;;;;6.39;100.00;99463.53;5029300;28;20121;-64
2024/01/05 03:24:59;;;;;;;7.25;2.08;;;;;;;6.39;100.00;99455.81;5030517;28;20468;-63
2024/01/05 03:27:25;;;;;;;4.22;2.15;;;;;;;6.39;100.00;99448.09;5032078;28;20020;-64
2024/01/05 03:29:50;;;;;;;7.72;1.70;;;;;;;6.42;100.00;99450.72;5030197;28;20061;-64
2024/01/05 03:32:15;;;;;;;8.98;1.75;;;;;;;6.43;100.00;99438.75;5028659;28;20022;-64
2024/01/05 03:34:40;;;;;;;6.07;1.90;;;;;;;6.47;100.00;99441.47;5030426;28;20017;-64
2024/01/05 03:37:06;;;;;;;11.43;2.38;;;;;;;6.44;100.00;99427.66;5029574;28;20034;-64
2024/01/05 03:39:31;;;;;;;7.30;1.67;;;;;;;6.46;100.00;99431.97;5029374;28;20061;-64
2024/01/05 03:41:56;;;;;;;7.35;1.55;;;;;;;6.46;100.00;99437.13;5029215;28;20030;-64
2024/01/05 03:44:21;;;;;;;11.20;2.45;;;;;;;6.47;100.00;99433.75;5021973;28;20113;-64
2024/01/05 03:46:48;;;;;;;7.90;1.60;;;;;;;6.51;100.00;99429.56;5022876;28;20026;-64
2024/01/05 03:49:14;;;;;;;9.18;1.63;;;;;;;6.47;100.00;99422.56;5030351;28;20056;-64
2024/01/05 03:51:39;;;;;;;6.38;2.22;;;;;;;6.52;100.00;99420.97;5028819;28;20485;-64
2024/01/05 03:54:04;;;;;;;6.03;1.55;;;;;;;6.57;100.00;99409.09;5041097;28;20092;-63
2024/01/05 03:56:41;;;;;;;5.22;1.35;;;;;;;6.55;100.00;99405.59;5029074;28;20385;-64
2024/01/05 03:59:07;;;;;;;4.50;1.35;;;;;;;6.59;100.00;99396.25;5018857;28;20104;-64
2024/01/05 04:01:33;;;;;;;6.40;1.38;;;;;;;6.57;100.00;99400.50;5028991;28;20155;-64
2024/01/05 04:03:59;;;;;;;4.95;1.35;;;;;;;6.52;100.00;99396.94;5029230;28;20035;-64
2024/01/05 04:06:24;;;;;;;6.72;1.67;;;;;;;6.49;100.00;99388.31;5029225;28;20429;-64
2024/01/05 04:08:51;;;;;;;8.77;1.77;;;;;;;6.48;100.00;99386.56;5028060;28;20076;-64
2024/01/05 04:11:20;;;;;;;6.00;1.50;;;;;;;6.51;100.00;99382.34;5029327;28;20128;-64
2024/01/05 04:13:46;;;;;;;4.38;1.45;;;;;;;6.47;100.00;99371.97;5028921;28;20034;-64
2024/01/05 04:16:12;;;;;;;5.80;1.58;;;;;;;6.51;100.00;99369.47;5029308;28;20477;-64
2024/01/05 04:18:37;;;;;;;11.68;1.73;;;;;;;6.49;100.00;99370.28;5028385;28;20030;-63
2024/01/05 04:21:03;;;;;;;4.15;1.23;;;;;;;6.53;100.00;99365.25;5035169;28;20484;-64
2024/01/05 04:23:28;;;;;;;10.27;2.00;;;;;;;6.47;100.00;99360.81;5045258;28;20028;-64
2024/01/05 04:25:53;;;;;;;5.50;1.90;;;;;;;6.46;100.00;99354.78;5028436;28;20029;-64
2024/01/05 04:28:20;;;;;;;5.75;1.83;;;;;;;6.52;100.00;99356.63;5040580;28;20025;-64
2024/01/05 04:30:46;;;;;;;5.30;1.50;;;;;;;6.49;100.00;99349.69;5028824;28;20033;-64
2024/01/05 04:33:11;;;;;;;3.20;1.20;;;;;;;6.53;100.00;99344.66;5039630;28;20029;-63
2024/01/05 04:35:37;;;;;;;6.90;1.63;;;;;;;6.52;100.00;99337.75;5033769;28;20035;-64
2024/01/05 04:38:02;;;;;;;4.60;1.17;;;;;;;6.51;100.00;99330.88;5041747;28;20444;-64
2024/01/05 04:40:28;;;;;;;4.70;1.10;;;;;;;6.49;100.00;99334.25;5028932;28;20025;-64
2024/01/05 04:42:53;;;;;;;6.90;1.25;;;;;;;6.51;100.00;99338.59;5027533;28;20069;-64
2024/01/05 04:45:19;;;;;;;6.97;1.30;;;;;;;6.54;100.00;99330.94;5028547;28;20414;-64
2024/01/05 04:47:46;;;;;;;6.05;1.02;;;;;;;6.55;100.00;99324.97;5028197;28;20064;-64
2024/01/05 04:50:11;;;;;;;6.13;1.65;;;;;;;6.49;100.00;99318.81;5027630;28;20034;-64
2024/01/05 04:52:37;;;;;;;4.38;1.10;;;;;;;6.47;100.00;99312.78;5028734;28;20401;-64
2024/01/05 04:55:03;;;;;;;3.50;1.73;;;;;;;6.47;100.00;99320.50;5028526;28;20033;-64
2024/01/05 04:57:28;;;;;;;7.65;1.50;;;;;;;6.46;100.00;99310.13;5028781;28;20033;-64
2024/01/05 04:59:54;;;;;;;5.28;1.10;;;;;;;6.46;100.00;99307.56;5027918;28;20030;-64
2024/01/05 05:02:19;;;;;;;5.78;1.20;;;;;;;6.51;100.00;99305.13;5028446;28;20026;-64
2024/01/05 05:04:44;;;;;;;6.47;1.58;;;;;;;6.47;100.00;99302.50;5027549;28;20080;-63
2024/01/05 05:07:10;;;;;;;6.35;1.23;;;;;;;6.52;100.00;99294.88;5020769;28;20049;-64
2024/01/05 05:09:35;;;;;;;8.35;1.40;;;;;;;6.51;100.00;99294.84;5028104;28;20068;-64
2024/01/05 05:12:00;;;;;;;5.82;1.33;;;;;;;6.52;100.00;99292.28;5027887;28;20028;-64
2024/01/05 05:14:25;;;;;;;6.13;1.35;;;;;;;6.51;100.00;99292.25;5028860;28;20028;-64
2024/01/05 05:16:51;;;;;;;2.47;0.90;;;;;;;6.60;100.00;99290.75;5038624;28;20056;-64
2024/01/05 05:19:16;;;;;;;4.30;1.00;;;;;;;6.62;100.00;99289.94;5038034;28;20079;-64
2024/01/05 05:21:41;;;;;;;4.68;1.35;;;;;;;6.57;100.00;99285.53;5036572;28;20104;-64
2024/01/05 05:24:06;;;;;;;3.90;0.90;;;;;;;6.59;100.00;99288.16;5026873;28;20022;-64
2024/01/05 05:26:32;;;;;;;5.13;1.20;;;;;;;6.63;100.00;99284.81;5037124;28;20021;-64
2024/01/05 05:28:57;;;;;;;3.83;1.25;;;;;;;6.70;100.00;99288.41;5027695;28;20028;-64
2024/01/05 05:31:22;;;;;;;4.68;0.90;;;;;;;6.73;100.00;99291.03;5037175;28;20496;-64
2024/01/05 05:33:47;;;;;;;3.70;0.93;;;;;;;6.71;100.00;99291.00;5040579;28;20020;-64
2024/01/05 05:36:13;;;;;;;4.80;1.00;;;;;;;6.75;100.00;99280.78;5043561;28;20792;-64
2024/01/05 05:38:38;;;;;;;5.70;1.13;;;;;;;6.76;100.00;99285.97;5028180;28;20103;-64
2024/01/05 05:41:03;;;;;;;3.83;1.08;;;;;;;6.80;100.00;99286.94;5031818;28;20017;-64
2024/01/05 05:43:28;;;;;;;6.60;2.00;;;;;;;6.76;100.00;99288.56;5027158;28;20056;-64
2024/01/05 05:45:55;;;;;;;5.47;1.33;;;;;;;6.80;100.00;99286.94;5040317;28;20452;-64
2024/01/05 05:48:20;;;;;;;4.35;1.15;;;;;;;6.80;100.00;99289.50;5027251;28;20068;-64
2024/01/05 05:50:45;;;;;;;3.20;1.08;;;;;;;6.88;100.00;99289.66;5027194;28;20444;-64
2024/01/05 05:53:11;;;;;;;4.07;0.98;;;;;;;6.89;100.00;99301.72;5027381;28;20025;-64
2024/01/05 05:55:36;;;;;;;3.90;0.90;;;;;;;6.83;100.00;99289.56;5026610;28;20056;-64
2024/01/05 05:58:01;;;;;;;3.95;1.10;;;;;;;6.91;100.00;99285.44;5027587;28;20025;-64
2024/01/05 06:00:27;;;;;;;5.35;0.90;;;;;;;6.88;100.00;99290.53;5027187;28;20485;-64
2024/01/05 06:02:52;;;;;;;5.22;0.70;;;;;;;6.93;100.00;99286.34;5026696;28;20136;-64
2024/01/05 06:05:17;;;;;;;2.10;0.57;;;;;;;7.06;100.00;99294.34;5026692;28;20462;-64
2024/01/05 06:07:42;;;;;;;3.25;0.45;;;;;;;7.04;100.00;99296.00;5026883;28;20021;-64
2024/01/05 06:10:08;;;;;;;1.17;0.50;;;;;;;6.98;100.00;99296.75;5027091;28;20030;-64
2024/01/05 06:12:33;;;;;;;0.47;0.22;;;;;;;6.95;100.00;99299.25;5026609;28;20389;-64
2024/01/05 06:14:59;;;;;;;3.83;0.30;;;;;;;7.00;100.00;99317.41;5027113;28;20032;-64
2024/01/05 06:17:24;;;;;;;0.50;0.20;;;;;;;6.99;100.00;99307.91;5026093;28;20079;-64
2024/01/05 06:19:50;;;;;;;1.38;0.30;;;;;;;6.98;100.00;99312.19;5027480;28;20490;-64
2024/01/05 06:22:15;;;;;;;0.85;0.20;;;;;;;6.91;100.00;99303.47;5026598;28;20531;-64
2024/01/05 06:24:41;;;;;;;1.88;0.20;;;;;;;6.88;100.00;99303.41;5026632;28;20033;-64
2024/01/05 06:27:06;;;;;;;1.80;0.25;;;;;;;6.89;100.00;99299.13;5027788;28;20063;-63
2024/01/05 06:29:31;;;;;;;1.10;0.20;;;;;;;6.91;100.00;99294.84;5037548;28;20021;-64
2024/01/05 06:31:57;;;;;;;1.15;0.10;;;;;;;6.91;100.00;99308.63;5026400;28;20029;-63
2024/01/05 06:34:22;;;;;;;0.50;0.20;;;;;;;6.95;100.00;99313.00;5026874;28;20021;-63
2024/01/05 06:36:47;;;;;;;0.90;0.30;;;;;;;6.97;100.00;99306.19;5026618;28;20063;-64
2024/01/05 06:39:12;;;;;;;0.75;0.20;;;;;;;6.95;100.00;99294.97;5043923;28;20044;-63
2024/01/05 06:41:38;;;;;;;1.55;0.10;;;;;;;6.96;100.00;99312.16;5039275;28;20033;-64
2024/01/05 06:44:04;;;;;;;1.52;0.50;;;;;;;6.96;100.00;99303.59;5029078;28;20021;-64
2024/01/05 06:46:30;;;;;;;1.00;0.20;;;;;;;6.92;100.00;99307.81;5026164;28;20021;-64
2024/01/05 06:48:56;;;;;;;0.55;0.28;;;;;;;6.93;100.00;99301.78;5024163;28;20321;-64
2024/01/05 06:51:23;;;;;;;1.55;0.38;;;;;;;6.89;100.00;99307.72;5026202;28;20481;-64
2024/01/05 06:53:49;;;;;;;0.65;0.20;;;;;;;6.84;100.00;99312.75;5027397;28;20068;-64
2024/01/05 06:56:14;;;;;;;0.52;0.28;;;;;;;6.83;100.00;99321.34;5025567;28;20037;-64
2024/01/05 06:58:39;;;;;;;1.58;0.40;;;;;;;6.84;100.00;99309.31;5026840;28;20112;-64
2024/01/05 07:01:04;;;;;;;1.38;0.13;;;;;;;6.78;100.00;99310.03;5026226;28;20072;-64
2024/01/05 07:03:30;;;;;;;1.20;0.22;;;;;;;6.86;100.00;99312.78;5026662;28;20013;-64
2024/01/05 07:05:55;;;;;;;0.93;0.32;;;;;;;6.82;100.00;99310.97;5026284;28;20017;-64
2024/01/05 07:08:20;;;;;;;1.05;0.20;;;;;;;6.78;100.00;99310.03;5019329;28;20101;-64
2024/01/05 07:10:46;;;;;;;0.40;0.30;;;;;;;6.86;100.00;99307.66;5026626;28;20029;-64
2024/01/05 07:13:11;;;;;;;3.17;0.30;;;;;;;6.81;100.00;99310.13;5029509;28;20017;-64
2024/01/05 07:15:36;;;;;;;1.23;0.38;;;;;;;6.79;100.00;99306.66;5026012;28;20029;-64
2024/01/05 07:18:02;;;;;;;0.30;0.17;;;;;;;6.73;100.00;99306.47;5028021;28;20119;-64
2024/01/05 07:20:27;;;;;;;1.83;0.20;;;;;;;6.70;100.00;99312.44;5028868;28;20070;-64
2024/01/05 07:22:52;;;;;;;0.40;0.20;;;;;;;6.78;100.00;99314.34;5019297;28;20206;-64
2024/01/05 07:25:17;;;;;;;0.55;0.10;;;;;;;6.77;100.00;99304.84;5020424;28;20056;-64
2024/01/05 07:27:43;;;;;;;0.47;0.20;;;;;;;6.75;100.00;99319.38;5022953;28;20032;-64
2024/01/05 07:30:08;;;;;;;1.48;0.10;;;;;;;6.76;100.00;99309.16;5023726;28;20079;-64
2024/01/05 07:32:34;;;;;;;0.52;0.20;;;;;;;6.73;100.00;99312.50;5023094;28;20033;-64
2024/01/05 07:34:59;;;;;;;1.23;0.30;;;;;;;6.70;100.00;99316.72;5025703;28;20469;-64
2024/01/05 07:37:24;;;;;;;0.80;0.30;;;;;;;6.64;100.00;99312.28;5021663;28;20057;-64
2024/01/05 07:39:50;;;;;;;1.60;0.20;;;;;;;6.66;100.00;99304.59;5021622;28;20450;-64
2024/01/05 07:42:15;;;;;;;0.60;0.20;;;;;;;6.62;100.00;99319.09;5020661;28;20022;-64
2024/01/05 07:44:40;;;;;;;0.40;0.40;;;;;;;6.65;100.00;99313.16;5022159;28;20032;-64
2024/01/05 07:47:06;;;;;;;2.17;0.35;;;;;;;6.56;100.00;99322.44;5032892;28;20562;-64
2024/01/05 07:49:31;;;;;;;0.35;0.28;;;;;;;6.57;100.00;99320.69;5022816;28;20029;-64
2024/01/05 07:51:56;;;;;;;0.68;0.20;;;;;;;6.52;100.00;99322.28;5022164;28;20429;-64
2024/01/05 07:54:22;;;;;;;0.75;0.20;;;;;;;6.53;100.00;99319.75;5022201;28;20021;-64
2024/01/05 07:56:47;;;;;;;0.70;0.25;;;;;;;6.43;100.00;99321.25;5021743;28;20032;-64
2024/01/05 07:59:14;;;;;;;0.50;0.30;;;;;;;6.35;100.00;99325.34;5023909;28;20030;-64
2024/01/05 08:01:39;;;;;;;2.75;0.30;;;;;;;6.27;100.00;99320.00;5021546;28;20180;-64
2024/01/05 08:04:05;;;;;;;2.08;0.30;;;;;;;6.19;100.00;99313.81;5031676;28;20136;-64
2024/01/05 08:06:30;;;;;;;1.38;0.25;;;;;;;6.03;100.00;99323.63;5030198;28;20148;-64
2024/01/05 08:08:55;;;;;;;1.25;0.30;;;;;;;5.99;100.00;99312.41;5026324;28;20025;-64
2024/01/05 08:11:21;;;;;;;2.17;0.47;;;;;;;5.90;100.00;99319.88;5028583;28;20032;-64
2024/01/05 08:13:46;;;;;;;0.35;0.20;;;;;;;5.90;100.00;99317.28;5027100;28;20488;-64
2024/01/05 08:16:12;;;;;;;0.75;0.30;;;;;;;5.89;100.00;99310.41;5028683;28;20022;-64
2024/01/05 08:18:39;;;;;;;2.63;0.40;;;;;;;5.88;100.00;99321.56;5029251;28;20027;-64
2024/01/05 08:21:04;;;;;;;0.50;0.25;;;;;;;5.83;100.00;99320.56;5028641;28;20029;-64
2024/01/05 08:23:30;;;;;;;0.68;0.28;;;;;;;5.81;100.00;99314.50;5028471;28;20371;-64
2024/01/05 08:25:56;;;;;;;0.85;0.35;;;;;;;5.80;100.00;99316.19;5027629;28;20028;-64
2024/01/05 08:28:22;;;;;;;0.68;0.55;;;;;;;5.80;100.00;99325.59;5027061;28;20068;-64
2024/01/05 08:30:47;;;;;;;1.48;0.25;;;;;;;5.76;100.00;99320.38;5027717;28;20033;-64
2024/01/05 08:33:13;;;;;;;1.02;0.30;;;;;;;5.82;100.00;99323.94;5031505;28;20029;-64
2024/01/05 08:35:38;;;;;;;1.45;0.32;;;;;;;5.76;100.00;99324.63;5028471;28;20072;-64
2024/01/05 08:38:04;;;;;;;0.30;0.17;;;;;;;5.71;100.00;99318.50;5034074;28;20060;-64
2024/01/05 08:40:30;;;;;;;0.82;0.32;;;;;;;5.64;100.00;99330.31;5028913;28;20071;-64
2024/01/05 08:42:57;;;;;;;1.13;0.35;;;;;;;5.60;100.00;99334.50;5027943;28;20496;-64
2024/01/05 08:45:22;;;;;;;0.30;0.30;;;;;;;5.62;100.00;99326.84;5028399;28;20029;-64
2024/01/05 08:47:48;;;;;;;1.65;0.30;;;;;;;5.58;100.00;99337.84;5029418;28;20056;-64
2024/01/05 08:50:14;;;;;;;0.28;0.10;;;;;;;5.62;100.00;99340.56;5028509;28;20029;-64
2024/01/05 08:52:39;;;;;;;2.03;0.35;;;;;;;5.54;100.00;99339.47;5028534;28;20044;-64
2024/01/05 08:55:05;;;;;;;1.35;0.20;;;;;;;5.48;100.00;99355.59;5027699;28;20124;-64
2024/01/05 08:57:30;;;;;;;0.90;0.20;;;;;;;5.49;100.00;99359.00;5028474;28;20059;-64
2024/01/05 08:59:56;;;;;;;0.35;0.30;;;;;;;5.44;100.00;99346.03;5027718;28;20059;-64
2024/01/05 09:02:22;;;;;;;0.73;0.32;;;;;;;5.34;100.00;99354.31;5029808;28;20036;-64
2024/01/05 09:04:48;;;;;;;0.55;0.35;;;;;;;5.30;100.00;99353.34;5029455;28;20092;-64
2024/01/05 09:07:13;;;;;;;1.10;0.20;;;;;;;5.27;100.00;99359.25;5021027;28;20105;-64
2024/01/05 09:09:38;;;;;;;0.25;0.20;;;;;;;5.20;100.00;99369.31;5027762;28;20049;-64
2024/01/05 09:12:04;;;;;;;0.50;0.30;;;;;;;5.17;100.00;99354.69;5026776;28;20033;-64
2024/01/05 09:14:29;;;;;;;1.65;0.20;;;;;;;5.16;100.00;99368.34;5028560;28;20376;-64
2024/01/05 09:16:55;;;;;;;0.32;0.28;;;;;;;5.18;100.00;99370.97;5028047;28;20384;-64
2024/01/05 09:19:20;;;;;;;0.73;0.30;;;;;;;5.13;100.00;99363.09;5027210;28;20237;-64
2024/01/05 09:21:45;;;;;;;0.82;0.20;;;;;;;4.97;100.00;99362.63;5027281;28;20032;-64
2024/01/05 09:24:10;;;;;;;0.52;0.20;;;;;;;4.91;100.00;99365.03;5027728;28;20044;-64
2024/01/05 09:26:36;;;;;;;0.30;0.20;;;;;;;4.76;100.00;99352.56;5038167;28;20016;-64
2024/01/05 09:29:01;;;;;;;1.17;0.30;;;;;;;4.76;100.00;99366.28;5030499;28;20377;-64
2024/01/05 09:31:27;;;;;;;0.68;0.30;;;;;;;4.73;100.00;99358.47;5027525;28;20047;-64
2024/01/05 09:33:53;;;;;;;1.30;0.30;;;;;;;4.66;100.00;99371.91;5028870;28;20025;-64
2024/01/05 09:36:19;;;;;;;0.55;0.30;;;;;;;4.64;100.00;99369.31;5026224;28;20104;-64
2024/01/05 09:38:45;;;;;;;1.67;0.52;;;;;;;4.65;100.00;99362.50;5026433;28;20529;-64
2024/01/05 09:41:13;;;;;;;0.63;0.30;;;;;;;4.62;100.00;99372.66;5025879;28;20091;-63
2024/01/05 09:43:40;;;;;;;0.85;0.20;;;;;;;4.63;100.00;99371.81;5027158;28;20396;-64
2024/01/05 09:46:07;;;;;;;0.57;0.30;;;;;;;4.64;100.00;99371.03;5027941;28;20470;-64
2024/01/05 09:48:33;;;;;;;2.50;0.40;;;;;;;4.63;100.00;99382.09;5038791;28;20132;-64
2024/01/05 09:50:59;;;;;;;1.10;0.40;;;;;;;4.66;100.00;99377.94;5027151;28;20133;-64
2024/01/05 09:53:25;;;;;;;1.45;0.40;;;;;;;4.69;100.00;99374.59;5026061;28;20160;-64
2024/01/05 09:55:50;;;;;;;2.15;1.05;;;;;;;4.74;100.00;99378.19;5031115;28;20623;-64
2024/01/05 09:58:17;;;;;;;1.70;0.50;;;;;;;4.73;100.00;99379.00;5028534;28;20036;-64
2024/01/05 10:00:50;;;;;;;1.23;0.65;;;;;;;4.86;100.00;99380.28;5027900;28;20029;-63
2024/01/05 10:03:23;;;;;;;1.50;0.40;;;;;;;4.83;100.00;99384.44;5027345;28;20021;-64
2024/01/05 10:05:54;;;;;;;0.70;0.32;;;;;;;4.84;100.00;99386.19;5027051;28;20068;-64
2024/01/05 10:08:21;;;;;;;;;;;;;;;4.86;100.00;99384.53;5019086;28;20021;-64
2024/01/05 10:10:48;;;;;;;2.38;0.60;;;;;;;4.92;100.00;99384.72;5026404;28;19920;-64
2024/01/05 10:13:17;;;;;;;0.88;0.60;;;;;;;4.92;100.00;99387.31;5028353;28;20434;-64
2024/01/05 10:15:55;;;;;;;2.97;0.70;;;;;;;4.96;100.00;99371.19;5026701;28;20020;-64
2024/01/05 10:18:22;;;;;;;1.65;0.60;;;;;;;5.02;100.00;99371.34;5028137;28;20045;-64
2024/01/05 10:20:47;;;;;;;1.08;0.60;;;;;;;5.08;100.00;99368.09;5025903;28;20037;-64
2024/01/05 10:23:13;;;;;;;2.72;0.60;;;;;;;5.15;100.00;99375.19;5026247;28;20033;-64
2024/01/05 10:25:39;;;;;;;1.00;0.90;;;;;;;5.30;100.00;99376.47;5025943;28;20412;-64
2024/01/05 10:28:31;;;;;;;2.50;0.60;;;;;;;5.35;100.00;99374.91;5025482;28;20071;-64
2024/01/05 10:31:16;;;;;;;2.50;0.60;;;;;;;5.33;100.00;99376.56;5023128;28;20037;-64
2024/01/05 10:33:54;;;;;;;2.85;0.70;;;;;;;5.33;100.00;99380.81;5024459;28;20037;-64
2024/01/05 10:36:23;;;;;;;1.95;0.70;;;;;;;5.36;100.00;99365.50;5025865;28;20072;-64
2024/01/05 10:38:50;;;;;;;1.25;0.40;;;;;;;5.40;100.00;99372.47;5025661;28;20041;-64
2024/01/05 10:41:16;;;;;;;1.95;0.50;;;;;;;5.40;100.00;99369.91;5031564;28;20041;-64
2024/01/05 10:43:42;;;;;;;3.08;0.70;;;;;;;5.38;100.00;99375.00;5025827;28;20025;-64
2024/01/05 10:46:14;;;;;;;2.10;0.80;;;;;;;5.39;100.00;99370.75;5026236;28;20086;-64
2024/01/05 10:48:39;;;;;;;;;;;;;;;5.45;100.00;99381.19;5013569;28;20449;-64
2024/01/05 10:51:06;;;;;;;1.20;0.60;;;;;;;5.40;100.00;99387.88;5025557;28;19956;-64
2024/01/05 10:53:32;;;;;;;2.47;0.75;;;;;;;5.45;100.00;99383.75;5022785;28;20021;-64
2024/01/05 10:56:01;;;;;;;0.85;0.68;;;;;;;5.42;100.00;99391.38;5026086;28;20034;-64
2024/01/05 10:58:26;;;;;;;1.08;0.70;;;;;;;5.43;100.00;99394.81;5026203;28;20343;-64
2024/01/05 11:00:54;;;;;;;2.90;0.60;;;;;;;5.40;100.00;99390.44;5029467;28;20037;-64
2024/01/05 11:03:20;;;;;;;1.70;0.90;;;;;;;5.44;100.00;99389.72;5037316;28;20690;-64
2024/01/05 11:05:46;;;;;;;1.92;0.63;;;;;;;5.51;100.00;99396.78;5016967;28;20057;-64
2024/01/05 11:08:39;;;;;;;2.00;0.73;;;;;;;5.48;100.00;99390.69;5017779;28;20039;-64
2024/01/05 11:11:20;;;;;;;0.70;0.50;;;;;;;5.40;100.00;99391.34;5024403;28;20060;-64
2024/01/05 11:13:58;;;;;;;;;;;;;;;5.43;100.00;99390.56;5027136;28;20575;-64
2024/01/05 11:17:01;;;;;;;2.97;0.70;;;;;;;5.49;100.00;99382.13;5017035;28;20292;-64
2024/01/05 11:19:56;;;;;;;2.05;0.82;;;;;;;5.48;100.00;99381.28;5020721;28;20029;-64
2024/01/05 11:22:27;;;;;;;1.17;0.60;;;;;;;5.40;100.00;99387.88;5027610;28;20108;-64
2024/01/05 11:24:55;;;;;;;1.33;0.50;;;;;;;5.41;100.00;99399.91;5021045;28;20034;-64
2024/01/05 11:27:32;;;;;;;5.35;0.70;;;;;;;5.39;100.00;99391.28;5022588;28;20344;-64